Time;durP1;ratioP1;P1;durP2;ratioP2;P2;SDS_P1;SDS_P2;PMS_P1;PMS_P2;Temp;Humidity;BMP_temperature;BMP_pressure;BME280_temperature;BME280_humidity;BME280_pressure;Samples;Min_cycle;Max_cycle;Signal;HPM_P1;HPM_P2
2023/05/25 00:01:42;;;;;;;11.68;3.92;;;12.10;51.10;;;;;;5048293;28;20196;-93
2023/05/25 00:07:10;;;;;;;10.15;3.95;;;12.10;51.10;;;;;;5056709;28;20195;-92
2023/05/25 00:09:37;;;;;;;10.77;4.22;;;12.10;51.50;;;;;;5047925;28;20197;-94
2023/05/25 00:12:05;;;;;;;9.73;4.45;;;12.00;50.80;;;;;;5047895;28;20201;-95
2023/05/25 00:20:14;;;;;;;10.13;4.25;;;12.00;51.30;;;;;;5036818;28;20237;-94
2023/05/25 00:25:25;;;;;;;13.13;4.25;;;11.90;52.10;;;;;;5050894;28;20204;-92
2023/05/25 00:36:19;;;;;;;9.35;4.00;;;11.90;53.70;;;;;;5036945;28;20200;-94
2023/05/25 00:44:08;;;;;;;7.97;4.20;;;11.90;54.40;;;;;;5047899;28;20209;-93
2023/05/25 00:49:41;;;;;;;13.85;4.43;;;11.90;53.50;;;;;;5055078;28;20208;-93
2023/05/25 00:58:02;;;;;;;9.68;4.28;;;11.90;53.60;;;;;;5050327;28;20190;-93
2023/05/25 01:09:27;;;;;;;11.45;4.25;;;11.90;54.00;;;;;;5029673;28;20209;-93
2023/05/25 01:11:56;;;;;;;13.90;4.65;;;11.90;55.80;;;;;;5048134;28;20272;-93
2023/05/25 01:14:24;;;;;;;11.27;4.32;;;11.90;56.50;;;;;;5041031;28;20270;-93
2023/05/25 01:17:06;;;;;;;9.13;4.60;;;11.90;56.90;;;;;;5041064;28;20206;-93
2023/05/25 01:28:23;;;;;;;11.88;4.53;;;11.80;57.20;;;;;;5033789;28;20297;-93
2023/05/25 01:30:51;;;;;;;9.57;4.68;;;11.80;57.60;;;;;;5050029;28;20197;-93
2023/05/25 01:33:18;;;;;;;9.23;4.40;;;11.80;57.80;;;;;;5045265;28;20202;-93
2023/05/25 01:35:47;;;;;;;11.25;5.03;;;11.80;58.50;;;;;;5051735;28;20811;-93
2023/05/25 01:43:56;;;;;;;9.90;4.38;;;11.80;58.60;;;;;;5044896;28;20201;-92
2023/05/25 01:58:02;;;;;;;13.32;5.60;;;11.80;62.80;;;;;;5044300;28;20205;-93
2023/05/25 02:08:57;;;;;;;9.95;5.22;;;11.70;67.60;;;;;;5043089;28;20206;-92
2023/05/25 02:11:26;;;;;;;11.38;6.28;;;11.80;68.90;;;;;;5051628;28;20206;-92
2023/05/25 02:13:53;;;;;;;12.00;6.40;;;11.70;70.00;;;;;;5051048;28;20289;-93
2023/05/25 02:16:20;;;;;;;15.27;7.05;;;11.80;70.30;;;;;;5049530;28;20198;-94
2023/05/25 02:21:28;;;;;;;10.65;6.60;;;11.80;75.00;;;;;;5056187;28;20704;-93
2023/05/25 02:23:56;;;;;;;11.25;7.45;;;11.90;75.10;;;;;;5057275;28;20202;-92
2023/05/25 02:31:47;;;;;;;16.05;9.35;;;12.10;78.80;;;;;;5014485;28;20210;-93
2023/05/25 02:34:14;;;;;;;16.83;10.25;;;12.30;79.50;;;;;;5057871;28;20223;-94
2023/05/25 02:39:22;;;;;;;16.33;11.07;;;12.20;82.60;;;;;;5040566;28;20229;-94
2023/05/25 02:41:50;;;;;;;18.83;11.35;;;12.20;83.40;;;;;;5047629;28;20206;-92
2023/05/25 02:44:38;;;;;;;17.42;10.43;;;12.20;84.40;;;;;;5045511;28;20704;-93
2023/05/25 02:47:06;;;;;;;17.48;10.90;;;12.30;85.30;;;;;;5054721;28;20220;-93
2023/05/25 02:49:53;;;;;;;19.13;11.82;;;12.40;85.90;;;;;;5053820;28;20257;-93
2023/05/25 02:52:21;;;;;;;15.27;11.45;;;12.40;86.20;;;;;;5051903;28;20210;-92
2023/05/25 03:00:12;;;;;;;13.90;11.23;;;12.40;88.20;;;;;;5037308;28;20217;-93
2023/05/25 03:02:59;;;;;;;14.85;10.65;;;12.40;89.60;;;;;;5062828;28;20202;-92
2023/05/25 03:05:26;;;;;;;20.85;12.18;;;12.40;90.30;;;;;;5048858;28;20209;-93
2023/05/25 03:07:53;;;;;;;15.20;11.20;;;12.50;90.20;;;;;;5043629;28;20214;-93
2023/05/25 03:10:20;;;;;;;20.08;11.30;;;12.40;90.90;;;;;;5047702;28;20228;-92
2023/05/25 03:15:53;;;;;;;16.42;10.48;;;12.50;90.90;;;;;;5016749;28;20232;-92
2023/05/25 03:21:01;;;;;;;19.58;11.93;;;12.50;90.90;;;;;;5036452;28;20225;-92
2023/05/25 03:23:28;;;;;;;15.00;10.98;;;12.50;90.90;;;;;;5048897;28;20198;-93
2023/05/25 03:28:37;;;;;;;17.00;11.00;;;12.70;90.90;;;;;;5036809;28;20251;-93
2023/05/25 03:33:45;;;;;;;13.30;9.88;;;12.50;90.90;;;;;;5029185;28;20251;-92
2023/05/25 03:36:16;;;;;;;12.80;10.50;;;12.50;90.90;;;;;;5050674;28;20201;-92
2023/05/25 03:41:41;;;;;;;18.77;10.68;;;12.40;90.90;;;;;;5033995;28;20206;-93
2023/05/25 03:49:32;;;;;;;15.50;10.35;;;12.40;90.90;;;;;;5035793;28;20603;-93
2023/05/25 03:52:19;;;;;;;16.52;9.50;;;12.50;90.90;;;;;;5032008;28;20221;-92
2023/05/25 03:54:46;;;;;;;11.85;9.60;;;12.50;90.90;;;;;;5044604;28;20194;-92
2023/05/25 03:57:13;;;;;;;13.85;9.35;;;12.50;90.90;;;;;;5050587;28;20206;-93
2023/05/25 04:02:22;;;;;;;15.13;9.23;;;12.50;90.90;;;;;;5046817;28;20285;-92
2023/05/25 04:07:30;;;;;;;17.05;9.30;;;12.60;90.70;;;;;;5043178;28;20213;-93
2023/05/25 04:09:58;;;;;;;12.63;8.48;;;12.70;90.60;;;;;;5042884;28;20769;-93
2023/05/25 04:18:07;;;;;;;13.45;8.98;;;12.70;90.50;;;;;;5036836;28;20241;-93
2023/05/25 04:20:34;;;;;;;16.58;9.38;;;12.70;90.40;;;;;;5047936;28;20201;-93
2023/05/25 04:23:02;;;;;;;14.30;9.43;;;12.80;90.10;;;;;;5052166;28;20187;-92
2023/05/25 04:28:11;;;;;;;12.57;9.13;;;12.90;88.90;;;;;;5054253;28;20666;-92
2023/05/25 04:33:23;;;;;;;12.75;8.93;;;13.00;87.40;;;;;;5050097;28;20194;-93
2023/05/25 04:41:12;;;;;;;15.75;8.60;;;12.90;88.90;;;;;;5033334;28;20226;-90
2023/05/25 04:43:40;;;;;;;11.35;8.68;;;13.00;87.90;;;;;;5041887;28;20246;-92
2023/05/25 04:49:07;;;;;;;14.10;9.45;;;13.10;88.50;;;;;;4999706;28;20230;-86
2023/05/25 04:58:23;;;;;;;14.57;9.00;;;13.40;86.10;;;;;;5042213;28;20606;-91
2023/05/25 05:00:55;;;;;;;13.10;9.15;;;13.40;85.80;;;;;;5066015;28;20269;-88
2023/05/25 05:06:12;;;;;;;13.43;9.75;;;13.40;85.50;;;;;;5073267;28;20231;-88
2023/05/25 05:11:23;;;;;;;12.70;9.88;;;13.40;86.40;;;;;;5064855;28;20212;-89
2023/05/25 05:22:22;;;;;;;11.85;9.27;;;13.40;85.50;;;;;;5077899;28;20206;-89
2023/05/25 05:30:53;;;;;;;15.60;9.75;;;13.60;85.10;;;;;;5065702;28;20201;-88
2023/05/25 05:33:26;;;;;;;15.02;9.98;;;13.60;84.80;;;;;;5083655;28;20248;-90
2023/05/25 05:38:45;;;;;;;15.00;10.23;;;13.40;86.60;;;;;;5068650;28;20576;-89
2023/05/25 05:47:17;;;;;;;15.68;10.25;;;13.60;84.80;;;;;;5077608;28;20204;-89
2023/05/25 05:49:44;;;;;;;12.35;9.65;;;13.60;85.00;;;;;;5083325;28;20273;-88
2023/05/25 05:52:18;;;;;;;13.70;9.90;;;13.70;84.50;;;;;;5085279;28;20749;-89
2023/05/25 05:54:45;;;;;;;16.30;9.68;;;13.80;84.20;;;;;;5066006;28;20196;-88
2023/05/25 05:57:13;;;;;;;10.65;9.40;;;13.90;83.90;;;;;;5085607;28;20196;-88
2023/05/25 05:59:49;;;;;;;15.63;10.40;;;13.90;84.80;;;;;;5068455;28;20212;-89
2023/05/25 06:02:16;;;;;;;16.13;10.82;;;13.80;85.00;;;;;;5087470;28;20292;-88
2023/05/25 06:04:44;;;;;;;15.00;10.50;;;13.80;84.60;;;;;;5088791;28;20216;-88
2023/05/25 06:07:16;;;;;;;17.08;9.80;;;13.80;84.70;;;;;;5067370;28;20219;-89
2023/05/25 06:09:44;;;;;;;14.75;10.50;;;13.80;84.30;;;;;;5063037;28;20983;-87
2023/05/25 06:14:53;;;;;;;11.20;9.77;;;13.80;85.20;;;;;;5087852;28;20204;-88
2023/05/25 06:17:20;;;;;;;13.90;10.52;;;13.90;85.00;;;;;;5067148;28;20220;-88
2023/05/25 06:19:48;;;;;;;12.85;10.13;;;14.00;82.80;;;;;;5068549;28;20212;-88
2023/05/25 06:25:00;;;;;;;14.00;10.13;;;14.10;82.70;;;;;;5083783;28;20239;-88
2023/05/25 06:27:28;;;;;;;12.85;10.10;;;14.10;82.70;;;;;;5078911;28;20205;-91
2023/05/25 06:32:52;;;;;;;12.90;10.27;;;14.20;81.60;;;;;;5081708;28;20197;-90
2023/05/25 06:35:20;;;;;;;12.40;9.85;;;14.20;82.00;;;;;;5085341;28;20197;-89
2023/05/25 06:37:49;;;;;;;14.88;9.98;;;14.40;81.20;;;;;;5070496;28;20243;-89
2023/05/25 06:40:16;;;;;;;12.25;9.88;;;14.40;82.10;;;;;;5086526;28;21002;-90
2023/05/25 06:42:44;;;;;;;14.48;10.25;;;14.40;81.70;;;;;;5088787;28;20553;-91
2023/05/25 06:45:11;;;;;;;15.52;10.20;;;14.50;79.50;;;;;;5089445;28;20197;-91
2023/05/25 06:47:38;;;;;;;14.38;9.90;;;14.50;78.80;;;;;;5075742;28;20276;-90
2023/05/25 06:50:06;;;;;;;14.57;10.63;;;14.50;80.30;;;;;;5076376;28;20549;-92
2023/05/25 06:52:34;;;;;;;11.82;9.60;;;14.50;79.40;;;;;;5057304;28;20189;-92
2023/05/25 06:55:08;;;;;;;16.08;9.30;;;14.40;79.30;;;;;;5085946;28;20657;-90
2023/05/25 06:57:35;;;;;;;13.73;10.25;;;14.50;79.10;;;;;;5079196;28;20204;-89
2023/05/25 07:00:03;;;;;;;12.30;10.55;;;14.50;79.10;;;;;;5058247;28;20279;-90
2023/05/25 07:02:30;;;;;;;16.85;10.55;;;14.50;79.80;;;;;;5062589;28;20200;-90
2023/05/25 07:04:57;;;;;;;14.88;10.27;;;14.50;80.10;;;;;;5063462;28;20207;-93
2023/05/25 07:07:24;;;;;;;15.90;10.18;;;14.50;78.70;;;;;;5083372;28;20207;-91
2023/05/25 07:09:51;;;;;;;14.23;10.35;;;14.60;78.90;;;;;;5097908;28;20200;-90
2023/05/25 07:12:20;;;;;;;12.55;10.18;;;14.80;77.20;;;;;;5065826;28;20283;-90
2023/05/25 07:14:47;;;;;;;14.20;10.45;;;14.80;77.10;;;;;;5084217;28;20216;-90
2023/05/25 07:17:14;;;;;;;14.32;10.30;;;14.90;77.20;;;;;;5087647;28;20203;-89
2023/05/25 07:19:42;;;;;;;16.80;11.05;;;14.90;77.20;;;;;;5076045;28;20265;-91
2023/05/25 07:22:09;;;;;;;13.93;10.45;;;14.90;77.20;;;;;;5092989;28;20208;-91
2023/05/25 07:24:36;;;;;;;12.73;9.90;;;14.90;77.20;;;;;;5088580;28;20667;-90
2023/05/25 07:27:05;;;;;;;15.20;9.98;;;14.90;77.20;;;;;;5086996;28;20205;-89
2023/05/25 07:29:35;;;;;;;12.95;9.68;;;14.90;77.20;;;;;;5089719;28;20291;-93
2023/05/25 07:32:02;;;;;;;15.60;10.48;;;15.10;76.00;;;;;;5092050;28;20205;-91
2023/05/25 07:34:30;;;;;;;15.88;10.05;;;15.10;75.60;;;;;;5068243;28;20201;-92
2023/05/25 07:36:56;;;;;;;19.15;9.85;;;15.00;75.50;;;;;;5074554;28;20196;-89
2023/05/25 07:39:23;;;;;;;17.83;10.82;;;14.90;77.20;;;;;;5063228;28;20205;-89
2023/05/25 07:47:14;;;;;;;13.43;9.60;;;15.00;75.60;;;;;;5089525;28;20278;-91
2023/05/25 07:49:41;;;;;;;13.65;9.23;;;15.10;72.70;;;;;;5086055;28;20205;-91
2023/05/25 07:52:08;;;;;;;13.70;10.35;;;15.30;72.40;;;;;;5054692;28;20580;-90
2023/05/25 07:57:17;;;;;;;15.07;9.55;;;15.50;73.20;;;;;;5073421;28;20243;-91
2023/05/25 08:02:26;;;;;;;13.63;9.57;;;15.80;67.80;;;;;;5056610;28;20224;-91
2023/05/25 08:04:54;;;;;;;13.50;9.30;;;15.90;66.30;;;;;;5066512;28;20945;-91
2023/05/25 08:07:21;;;;;;;12.18;9.70;;;15.90;65.70;;;;;;5072732;28;20192;-88
2023/05/25 08:09:50;;;;;;;13.52;9.73;;;15.90;65.10;;;;;;5054360;28;20590;-91
2023/05/25 08:12:18;;;;;;;13.63;9.20;;;15.80;67.60;;;;;;5092408;28;20618;-92
2023/05/25 08:17:28;;;;;;;13.90;9.35;;;15.90;64.60;;;;;;5089251;28;20231;-93
2023/05/25 08:22:36;;;;;;;12.40;9.73;;;16.00;64.30;;;;;;5053591;28;20231;-92
2023/05/25 08:33:13;;;;;;;10.73;8.50;;;16.00;65.20;;;;;;5077532;28;20634;-91
2023/05/25 08:35:43;;;;;;;9.43;8.48;;;15.90;64.80;;;;;;5062943;28;20237;-89
2023/05/25 08:38:10;;;;;;;11.10;9.23;;;15.90;65.00;;;;;;5062861;28;20204;-89
2023/05/25 08:43:21;;;;;;;10.85;8.55;;;15.80;66.60;;;;;;5069460;28;20521;-89
2023/05/25 08:45:50;;;;;;;10.65;8.55;;;15.90;66.10;;;;;;5068550;28;20228;-91
2023/05/25 08:53:46;;;;;;;10.57;9.57;;;16.20;64.00;;;;;;5089576;28;20547;-90
2023/05/25 08:59:01;;;;;;;9.63;8.23;;;16.10;63.80;;;;;;5074758;28;20610;-90
2023/05/25 09:10:38;;;;;;;10.05;8.68;;;16.10;62.60;;;;;;5081611;28;20212;-91
2023/05/25 09:13:15;;;;;;;12.43;9.82;;;16.10;63.40;;;;;;5082091;28;20203;-90
2023/05/25 09:16:02;;;;;;;12.48;8.82;;;16.00;63.60;;;;;;5068988;28;20987;-91
2023/05/25 09:21:15;;;;;;;10.68;8.45;;;16.10;65.30;;;;;;5090310;28;20224;-89
2023/05/25 09:23:42;;;;;;;10.38;8.32;;;16.20;63.00;;;;;;5075799;28;20769;-90
2023/05/25 09:28:57;;;;;;;9.18;8.10;;;16.20;62.00;;;;;;5081343;28;20211;-91
2023/05/25 09:31:24;;;;;;;10.43;8.55;;;16.30;60.40;;;;;;5085497;28;20288;-94
2023/05/25 09:36:39;;;;;;;10.68;8.65;;;16.20;60.90;;;;;;5088482;28;20199;-92
2023/05/25 09:39:09;;;;;;;10.25;9.00;;;16.20;62.10;;;;;;5061747;28;20192;-93
2023/05/25 09:44:17;;;;;;;12.40;9.70;;;16.20;63.10;;;;;;5068974;28;20236;-94
2023/05/25 09:52:11;;;;;;;12.95;9.10;;;16.30;61.20;;;;;;5075375;28;20215;-90
2023/05/25 09:54:38;;;;;;;10.60;8.40;;;16.60;60.80;;;;;;5090149;28;20577;-95
2023/05/25 09:59:47;;;;;;;10.23;8.50;;;16.90;58.10;;;;;;5054935;28;20205;-93
2023/05/25 10:02:14;;;;;;;10.25;8.73;;;17.10;56.70;;;;;;5089404;28;20216;-94
2023/05/25 10:07:25;;;;;;;10.77;8.68;;;17.20;56.00;;;;;;5082820;28;20200;-93
2023/05/25 10:09:54;;;;;;;9.15;8.15;;;17.30;56.00;;;;;;5046251;28;20196;-92
2023/05/25 10:24:08;;;;;;;9.77;7.38;;;18.00;50.60;;;;;;5076707;28;20288;-91
2023/05/25 10:34:48;;;;;;;10.70;7.85;;;17.80;51.70;;;;;;5043792;28;20290;-92
2023/05/25 10:43:04;;;;;;;9.20;7.95;;;17.70;52.20;;;;;;5018634;28;20283;-91
2023/05/25 10:45:32;;;;;;;9.00;7.75;;;17.60;53.80;;;;;;5014631;28;20201;-90
2023/05/25 10:47:59;;;;;;;8.60;7.70;;;17.60;53.70;;;;;;5058238;28;20211;-91
2023/05/25 10:50:29;;;;;;;8.25;7.30;;;17.80;52.40;;;;;;5064537;28;20208;-91
2023/05/25 10:55:49;;;;;;;8.88;7.30;;;17.70;53.90;;;;;;5065362;28;20595;-91
2023/05/25 11:12:48;;;;;;;8.48;7.10;;;17.90;51.50;;;;;;5084329;28;20196;-92
2023/05/25 11:15:15;;;;;;;8.73;7.00;;;17.80;53.20;;;;;;5069207;28;20207;-90
2023/05/25 11:18:01;;;;;;;9.18;8.23;;;17.90;54.10;;;;;;5074707;28;20717;-91
2023/05/25 11:23:27;;;;;;;7.75;6.78;;;18.00;52.70;;;;;;5085355;28;20224;-91
2023/05/25 11:28:46;;;;;;;8.95;7.28;;;18.50;49.60;;;;;;5070886;28;20197;-89
2023/05/25 11:31:14;;;;;;;8.05;6.60;;;18.60;48.50;;;;;;5083315;28;20200;-91
2023/05/25 11:33:43;;;;;;;7.85;7.05;;;18.80;48.60;;;;;;5051610;28;20630;-91
2023/05/25 11:36:11;;;;;;;12.02;7.70;;;19.10;46.20;;;;;;5067841;28;20197;-90
2023/05/25 11:38:44;;;;;;;7.88;6.72;;;18.90;49.00;;;;;;5084341;28;20192;-90
2023/05/25 11:41:17;;;;;;;8.10;7.30;;;19.20;46.30;;;;;;5089684;28;20697;-92
2023/05/25 11:43:46;;;;;;;8.48;7.00;;;19.30;45.10;;;;;;5065551;28;20235;-91
2023/05/25 11:46:13;;;;;;;7.82;6.97;;;19.50;46.00;;;;;;5068970;28;20204;-90
2023/05/25 11:48:44;;;;;;;10.75;7.20;;;19.50;43.70;;;;;;5069835;28;20997;-90
2023/05/25 11:51:11;;;;;;;8.70;7.80;;;19.60;42.90;;;;;;5087928;28;20197;-90
2023/05/25 11:53:42;;;;;;;8.50;6.60;;;19.60;42.60;;;;;;5086592;28;20197;-89
2023/05/25 11:56:09;;;;;;;7.28;6.57;;;19.60;43.00;;;;;;5083854;28;20204;-90
2023/05/25 12:01:55;;;;;;;9.77;8.77;;;19.40;44.20;;;;;;5086254;28;20700;-90
2023/05/25 12:04:22;;;;;;;8.20;7.25;;;19.60;43.40;;;;;;5075939;28;20327;-93
2023/05/25 12:06:49;;;;;;;8.98;7.13;;;19.90;41.80;;;;;;5085412;28;20645;-90
2023/05/25 12:12:04;;;;;;;6.78;6.18;;;20.00;41.90;;;;;;5084705;28;21341;-89
2023/05/25 12:17:13;;;;;;;6.47;5.88;;;20.30;41.10;;;;;;5082074;28;20196;-90
2023/05/25 12:19:40;;;;;;;8.60;6.20;;;20.50;39.30;;;;;;5067941;28;20212;-92
2023/05/25 12:22:07;;;;;;;6.13;5.53;;;20.70;36.70;;;;;;5089936;28;20221;-90
2023/05/25 12:24:34;;;;;;;8.23;6.25;;;20.90;35.80;;;;;;5066922;28;20199;-90
2023/05/25 12:27:03;;;;;;;7.45;6.00;;;21.20;34.20;;;;;;5085694;28;20208;-86
2023/05/25 12:29:31;;;;;;;7.97;5.90;;;21.00;33.90;;;;;;5083935;28;20293;-89
2023/05/25 12:32:04;;;;;;;7.32;5.38;;;20.60;36.10;;;;;;5079472;28;20205;-90
2023/05/25 12:34:50;;;;;;;9.20;6.30;;;20.40;36.70;;;;;;5063692;28;20246;-88
2023/05/25 12:37:25;;;;;;;8.18;5.65;;;20.30;37.20;;;;;;5089656;28;20211;-90
2023/05/25 12:39:52;;;;;;;10.20;7.32;;;20.30;37.30;;;;;;5088938;28;20216;-89
2023/05/25 12:42:19;;;;;;;13.05;8.52;;;20.20;38.10;;;;;;5065635;28;20758;-90
2023/05/25 12:44:54;;;;;;;12.30;8.82;;;20.00;40.60;;;;;;5085781;28;20288;-90
2023/05/25 12:47:23;;;;;;;9.98;7.10;;;20.10;39.30;;;;;;5085849;28;20196;-93
2023/05/25 12:49:51;;;;;;;9.55;7.40;;;20.00;40.90;;;;;;5058752;28;20215;-90
2023/05/25 12:52:35;;;;;;;22.23;16.48;;;20.50;39.20;;;;;;5082512;28;20205;-93
2023/05/25 12:55:24;;;;;;;7.10;6.30;;;20.60;37.30;;;;;;5084695;28;20253;-90
2023/05/25 13:03:50;;;;;;;10.10;7.60;;;20.90;36.80;;;;;;5028862;28;20198;-90
2023/05/25 13:06:18;;;;;;;10.48;8.38;;;21.10;35.10;;;;;;5044893;28;20197;-92
2023/05/25 13:08:45;;;;;;;10.73;7.93;;;20.70;36.80;;;;;;5084778;28;20193;-92
2023/05/25 13:11:11;;;;;;;12.50;8.90;;;20.70;37.30;;;;;;5074724;28;20671;-91
2023/05/25 13:13:38;;;;;;;10.85;8.40;;;20.60;38.90;;;;;;5080721;28;20209;-90
2023/05/25 13:16:07;;;;;;;8.65;7.75;;;20.50;40.00;;;;;;5086250;28;20295;-89
2023/05/25 13:18:34;;;;;;;9.95;8.15;;;20.50;39.50;;;;;;5089354;28;20356;-90
2023/05/25 13:21:01;;;;;;;8.98;7.07;;;20.50;38.60;;;;;;5067453;28;20217;-90
2023/05/25 13:23:28;;;;;;;11.05;7.32;;;20.60;37.90;;;;;;5073753;28;20224;-90
2023/05/25 13:25:55;;;;;;;9.00;6.82;;;20.50;39.80;;;;;;5081074;28;20581;-89
2023/05/25 13:28:22;;;;;;;8.85;7.40;;;20.60;37.60;;;;;;5086057;28;20196;-89
2023/05/25 13:30:49;;;;;;;14.50;8.35;;;20.50;37.60;;;;;;5066447;28;20646;-91
2023/05/25 13:33:25;;;;;;;8.60;7.78;;;20.60;40.30;;;;;;5085035;28;20193;-93
2023/05/25 13:36:06;;;;;;;8.23;6.50;;;20.60;39.60;;;;;;5087212;28;20295;-89
2023/05/25 13:38:33;;;;;;;8.82;6.50;;;20.60;37.90;;;;;;5069844;28;20309;-90
2023/05/25 13:41:00;;;;;;;6.95;6.35;;;20.60;37.50;;;;;;5085210;28;20205;-90
2023/05/25 13:43:27;;;;;;;7.28;6.57;;;20.40;38.20;;;;;;5068522;28;20558;-90
2023/05/25 13:45:55;;;;;;;9.35;6.88;;;20.30;40.00;;;;;;5087969;28;20221;-88
2023/05/25 13:48:24;;;;;;;8.43;6.75;;;20.40;39.80;;;;;;5057486;28;20254;-90
2023/05/25 13:50:52;;;;;;;9.95;6.68;;;20.50;38.10;;;;;;5078449;28;20216;-90
2023/05/25 13:53:19;;;;;;;7.97;7.13;;;20.50;38.30;;;;;;5067657;28;20197;-91
2023/05/25 13:55:46;;;;;;;8.60;7.18;;;20.50;38.10;;;;;;5056973;28;20249;-89
2023/05/25 13:58:13;;;;;;;16.50;7.78;;;20.60;36.90;;;;;;5081320;28;20271;-88
2023/05/25 14:00:40;;;;;;;11.98;8.02;;;20.50;37.30;;;;;;5053027;28;20208;-85
2023/05/25 14:03:07;;;;;;;12.05;8.32;;;20.60;38.00;;;;;;5088327;28;20219;-88
2023/05/25 14:05:36;;;;;;;12.02;8.30;;;20.60;38.10;;;;;;5065531;28;20197;-87
2023/05/25 14:08:04;;;;;;;10.38;8.32;;;20.70;38.20;;;;;;5089525;28;20270;-89
2023/05/25 14:10:31;;;;;;;14.25;8.57;;;20.60;38.30;;;;;;5070698;28;20192;-92
2023/05/25 14:12:58;;;;;;;10.60;9.25;;;20.60;39.80;;;;;;5068758;28;20197;-92
2023/05/25 14:18:08;;;;;;;12.60;9.23;;;21.00;37.60;;;;;;5088685;22;20330;-88
2023/05/25 14:20:49;;;;;;;10.48;9.02;;;21.10;37.10;;;;;;5069958;28;20958;-94
2023/05/25 14:23:36;;;;;;;11.13;9.20;;;21.10;38.40;;;;;;5072159;28;20790;-91
2023/05/25 14:26:23;;;;;;;13.68;10.15;;;21.10;37.90;;;;;;5064479;28;20219;-91
2023/05/25 14:28:56;;;;;;;14.20;9.43;;;21.00;38.30;;;;;;5066755;28;20209;-92
2023/05/25 14:31:23;;;;;;;13.45;9.07;;;21.40;37.40;;;;;;5066565;28;20207;-91
2023/05/25 14:33:50;;;;;;;11.60;9.20;;;21.50;37.60;;;;;;5075499;28;20205;-91
2023/05/25 14:36:20;;;;;;;10.70;8.93;;;21.50;36.70;;;;;;5075716;28;20247;-89
2023/05/25 14:38:46;;;;;;;11.13;8.10;;;21.30;37.30;;;;;;5077138;28;20251;-89
2023/05/25 14:41:13;;;;;;;11.35;8.80;;;21.30;37.10;;;;;;5077609;28;20189;-89
2023/05/25 14:43:40;;;;;;;10.80;8.52;;;21.40;36.40;;;;;;5077996;28;20221;-88
2023/05/25 14:46:09;;;;;;;12.02;10.40;;;21.40;36.70;;;;;;5076934;28;20514;-90
2023/05/25 14:48:36;;;;;;;11.73;8.75;;;21.30;37.00;;;;;;5056126;28;20292;-89
2023/05/25 14:51:03;;;;;;;14.05;8.40;;;21.50;37.00;;;;;;5063519;28;20204;-90
2023/05/25 14:56:58;;;;;;;11.63;7.25;;;21.40;35.10;;;;;;5055907;28;20289;-92
2023/05/25 14:59:25;;;;;;;9.85;7.60;;;21.10;36.20;;;;;;5066033;28;20216;-90
2023/05/25 15:04:32;;;;;;;11.35;7.38;;;21.20;33.40;;;;;;5058872;28;20223;-90
2023/05/25 15:09:41;;;;;;;12.38;7.45;;;21.30;34.80;;;;;;5060754;28;20715;-90
2023/05/25 15:12:14;;;;;;;10.57;7.50;;;21.50;34.40;;;;;;5072487;28;20201;-89
2023/05/25 15:14:43;;;;;;;13.02;6.90;;;21.40;33.20;;;;;;5076104;28;20605;-91
2023/05/25 15:19:53;;;;;;;11.02;6.85;;;21.50;33.30;;;;;;5065395;28;20214;-89
2023/05/25 15:22:20;;;;;;;9.55;7.38;;;21.40;34.30;;;;;;5048581;28;20209;-89
2023/05/25 15:24:47;;;;;;;10.57;7.57;;;21.10;36.10;;;;;;5052913;28;20205;-89
2023/05/25 15:30:45;;;;;;;8.80;6.50;;;21.10;36.30;;;;;;5071828;28;20205;-90
2023/05/25 15:33:13;;;;;;;11.80;7.05;;;21.20;36.60;;;;;;5075743;28;20225;-90
2023/05/25 15:35:40;;;;;;;9.65;7.30;;;21.10;37.30;;;;;;5056257;28;20205;-89
2023/05/25 15:38:07;;;;;;;9.63;6.55;;;20.90;37.10;;;;;;5061683;28;20211;-88
2023/05/25 15:40:36;;;;;;;10.85;6.20;;;20.70;38.10;;;;;;5068459;28;20201;-86
2023/05/25 15:45:46;;;;;;;8.43;6.65;;;20.70;37.90;;;;;;5060247;28;20267;-87
2023/05/25 15:48:13;;;;;;;9.50;7.07;;;20.80;37.70;;;;;;5046779;28;20208;-87
2023/05/25 15:50:40;;;;;;;9.50;6.47;;;20.90;38.10;;;;;;5037112;28;20193;-86
2023/05/25 15:53:07;;;;;;;10.13;6.38;;;20.80;38.00;;;;;;5060577;28;20220;-84
2023/05/25 15:55:34;;;;;;;8.43;6.75;;;20.80;37.60;;;;;;5069652;28;20280;-87
2023/05/25 15:58:01;;;;;;;12.50;6.20;;;20.60;37.80;;;;;;5049201;28;20189;-87
2023/05/25 16:00:31;;;;;;;10.50;6.53;;;20.40;37.90;;;;;;5065653;28;20545;-88
2023/05/25 16:02:58;;;;;;;10.48;6.32;;;20.30;38.30;;;;;;5069467;28;20299;-87
2023/05/25 16:05:25;;;;;;;8.65;6.18;;;20.30;38.70;;;;;;5067558;28;20716;-88
2023/05/25 16:07:52;;;;;;;7.60;6.07;;;20.30;38.90;;;;;;5060047;28;20207;-90
2023/05/25 16:10:19;;;;;;;7.07;5.68;;;20.40;39.20;;;;;;5062759;28;20204;-89
2023/05/25 16:12:46;;;;;;;11.63;6.10;;;20.50;39.20;;;;;;5065971;28;20299;-87
2023/05/25 16:15:13;;;;;;;10.55;5.60;;;20.60;37.60;;;;;;5069453;28;20223;-89
2023/05/25 16:17:42;;;;;;;10.98;5.90;;;20.70;37.40;;;;;;5027347;28;21404;-87
2023/05/25 16:20:09;;;;;;;13.52;8.80;;;20.80;36.90;;;;;;5042423;28;20387;-88
2023/05/25 16:22:36;;;;;;;10.60;6.05;;;20.90;36.20;;;;;;5060540;28;20719;-89
2023/05/25 16:25:06;;;;;;;8.27;6.10;;;21.10;35.50;;;;;;5046010;28;20205;-88
2023/05/25 16:27:35;;;;;;;8.73;6.05;;;21.10;36.90;;;;;;5062913;28;20197;-86
2023/05/25 16:30:04;;;;;;;11.20;5.80;;;21.10;34.60;;;;;;5045569;28;20201;-86
2023/05/25 16:32:31;;;;;;;8.15;6.18;;;21.10;35.60;;;;;;5059430;28;20691;-88
2023/05/25 16:35:00;;;;;;;8.32;5.82;;;21.10;36.10;;;;;;5067005;28;20233;-87
2023/05/25 16:37:27;;;;;;;9.02;6.13;;;21.10;36.50;;;;;;5059594;28;20262;-88
2023/05/25 16:39:55;;;;;;;7.70;6.38;;;21.10;36.60;;;;;;5064778;28;20567;-88
2023/05/25 16:42:23;;;;;;;8.32;6.43;;;21.00;36.20;;;;;;5050590;28;21464;-87
2023/05/25 16:44:50;;;;;;;7.95;5.55;;;20.80;36.00;;;;;;5061511;28;20232;-84
2023/05/25 16:47:18;;;;;;;19.33;8.82;;;20.60;36.50;;;;;;5032868;28;20201;-85
2023/05/25 16:49:45;;;;;;;17.33;9.25;;;20.50;36.40;;;;;;5048411;28;20588;-88
2023/05/25 16:52:14;;;;;;;10.32;5.50;;;20.40;37.60;;;;;;5062214;28;20201;-89
2023/05/25 16:54:43;;;;;;;9.90;6.15;;;20.40;37.70;;;;;;5064392;28;20277;-90
2023/05/25 16:57:11;;;;;;;18.02;9.13;;;20.50;37.70;;;;;;5043859;28;20194;-89
2023/05/25 16:59:44;;;;;;;30.77;12.98;;;20.50;37.70;;;;;;5054417;28;20194;-91
2023/05/25 17:04:52;;;;;;;9.05;5.43;;;20.40;38.10;;;;;;5069034;28;20294;-90
2023/05/25 17:07:20;;;;;;;9.98;6.38;;;20.50;36.40;;;;;;5068510;28;20207;-88
2023/05/25 17:09:47;;;;;;;10.27;5.22;;;20.50;37.00;;;;;;5068087;28;20198;-90
2023/05/25 17:12:16;;;;;;;9.65;5.93;;;20.40;36.10;;;;;;5042571;28;20197;-90
2023/05/25 17:14:43;;;;;;;8.18;5.00;;;20.60;35.40;;;;;;5064223;28;20209;-90
2023/05/25 17:17:18;;;;;;;7.38;5.13;;;20.70;37.00;;;;;;5066589;28;20201;-86
2023/05/25 17:19:45;;;;;;;7.72;5.53;;;20.60;37.10;;;;;;5033921;28;20207;-87
2023/05/25 17:22:12;;;;;;;10.45;6.53;;;20.70;36.40;;;;;;5061944;28;20197;-92
2023/05/25 17:24:40;;;;;;;7.60;5.30;;;20.50;37.20;;;;;;5050219;28;20578;-88
2023/05/25 17:27:08;;;;;;;7.93;5.43;;;20.40;37.70;;;;;;5030163;28;20208;-89
2023/05/25 17:29:44;;;;;;;8.35;5.63;;;20.40;39.40;;;;;;5062739;28;20204;-89
2023/05/25 17:32:11;;;;;;;8.80;5.32;;;20.20;39.00;;;;;;5065443;28;20201;-87
2023/05/25 17:34:46;;;;;;;10.88;5.40;;;20.20;38.60;;;;;;5070163;28;20791;-88
2023/05/25 17:37:16;;;;;;;8.27;5.05;;;20.10;38.90;;;;;;5030049;28;20206;-88
2023/05/25 17:42:26;;;;;;;6.05;4.30;;;19.90;39.80;;;;;;5041863;28;20568;-89
2023/05/25 17:48:10;;;;;;;7.03;4.57;;;19.70;40.20;;;;;;4956305;28;20208;-89
2023/05/25 17:50:37;;;;;;;8.57;5.50;;;19.50;41.00;;;;;;5044452;28;20646;-89
2023/05/25 18:01:30;;;;;;;6.75;5.28;;;19.10;44.60;;;;;;4989209;28;20584;-89
2023/05/25 18:06:41;;;;;;;8.02;5.55;;;18.90;45.30;;;;;;4962380;28;20215;-90
2023/05/25 18:09:36;;;;;;;8.02;5.88;;;18.90;46.20;;;;;;4937943;29;20213;-88
2023/05/25 18:17:31;;;;;;;8.10;5.88;;;18.50;50.70;;;;;;5055330;28;20282;-88
2023/05/25 18:22:54;;;;;;;10.73;6.95;;;18.30;53.10;;;;;;5014437;28;20232;-86
2023/05/25 18:25:21;;;;;;;8.93;6.78;;;18.20;54.30;;;;;;5067609;28;20759;-92
2023/05/25 18:27:50;;;;;;;8.13;5.57;;;18.20;54.30;;;;;;5035504;28;20197;-90
2023/05/25 18:30:37;;;;;;;10.05;7.57;;;18.10;54.20;;;;;;5049107;28;20201;-90
2023/05/25 18:33:05;;;;;;;9.82;6.13;;;18.00;56.90;;;;;;5034374;28;20215;-91
2023/05/25 18:35:36;;;;;;;10.82;5.32;;;17.90;57.60;;;;;;5068286;28;20296;-91
2023/05/25 18:40:45;;;;;;;8.25;6.05;;;17.90;58.30;;;;;;5051612;28;20201;-91
2023/05/25 18:43:14;;;;;;;12.10;7.32;;;17.70;59.20;;;;;;5049594;28;20228;-88
2023/05/25 18:48:22;;;;;;;10.25;6.32;;;17.60;63.30;;;;;;5062351;28;20202;-90
2023/05/25 18:50:52;;;;;;;11.38;7.03;;;17.40;62.90;;;;;;5068238;28;20224;-87
2023/05/25 18:53:20;;;;;;;9.65;6.30;;;17.40;66.10;;;;;;5065865;28;20198;-88